VA27 weather

Public forecast

Using degrees Fahrenheit for public forecast. Weather courtesy of forecast.io.

Closest aviation weather report (METAR) to Moorefield's Airstrip

Closest report is Blue Ridge Airport, 7.2 nm (13.3 km) NE. Retrieved 2020/08/15 16:35 UTC (11 minutes ago):

KMTV 151635Z AUTO 03006KT 7SM RA OVC006 21/21 A2998 RMK AO2 T02080208

Closest aviation forecast (TAF) to Moorefield's Airstrip

Closest forecast is Smith Reynolds Airport, 25.9 nm (48.0 km) S. Retrieved 2020/08/15 12:22 UTC (4 hours ago):

TAF KINT 151120Z 1512/1612 06003KT 4SM BR VCSH OVC004 FM151500 06004KT 6SM BR SCT008 OVC015 FM151800 05006KT 6SM SHRA BKN025 TEMPO 1520/1524 2SM -TSRA BKN015CB FM160300 03003KT 2SM BR OVC007